Time;durP1;ratioP1;P1;durP2;ratioP2;P2;SDS_P1;SDS_P2;PMS_P1;PMS_P2;Temp;Humidity;BMP_temperature;BMP_pressure;BME280_temperature;BME280_humidity;BME280_pressure;Samples;Min_cycle;Max_cycle;Signal;HPM_P1;HPM_P2
2022/11/26 00:00:56;;;;;;;18.60;8.45;;;;;;;3.51;100.00;102408.06;5070867;28;20404;-53
2022/11/26 00:03:24;;;;;;;20.48;7.80;;;;;;;3.49;100.00;102407.22;5075219;28;20075;-55
2022/11/26 00:05:56;;;;;;;22.63;7.90;;;;;;;3.49;100.00;102419.34;5070858;28;20475;-54
2022/11/26 00:08:33;;;;;;;15.40;8.02;;;;;;;3.47;100.00;102416.75;5069682;28;20403;-55
2022/11/26 00:11:02;;;;;;;16.60;7.78;;;;;;;3.45;100.00;102426.34;5069927;28;20225;-55
2022/11/26 00:13:31;;;;;;;14.82;7.70;;;;;;;3.44;100.00;102422.00;5069490;28;20425;-51
2022/11/26 00:15:59;;;;;;;17.88;8.02;;;;;;;3.42;100.00;102426.34;5069088;28;20399;-55
2022/11/26 00:18:27;;;;;;;17.30;7.60;;;;;;;3.43;100.00;102427.22;5069225;28;20137;-55
2022/11/26 00:21:00;;;;;;;17.80;7.97;;;;;;;3.40;100.00;102428.13;5070751;28;20078;-53
2022/11/26 00:23:28;;;;;;;17.52;7.47;;;;;;;3.43;100.00;102435.88;5071406;28;20037;-48
2022/11/26 00:25:59;;;;;;;16.95;7.47;;;;;;;3.44;100.00;102435.03;5074321;28;20055;-48
2022/11/26 00:28:30;;;;;;;18.30;8.55;;;;;;;3.47;100.00;102432.38;5074311;28;20051;-49
2022/11/26 00:31:00;;;;;;;19.42;8.30;;;;;;;3.47;100.00;102442.78;5074295;28;20047;-51
2022/11/26 00:33:30;;;;;;;23.27;9.77;;;;;;;3.47;100.00;102445.38;5074404;28;20082;-51
2022/11/26 00:36:03;;;;;;;18.85;9.13;;;;;;;3.47;100.00;102452.34;5074157;28;20047;-52
2022/11/26 00:38:31;;;;;;;21.40;8.80;;;;;;;3.45;100.00;102446.28;5074180;28;20141;-49
2022/11/26 00:41:00;;;;;;;19.58;9.48;;;;;;;3.46;100.00;102448.84;5074635;28;20049;-50
2022/11/26 00:43:28;;;;;;;21.60;9.00;;;;;;;3.45;100.00;102441.94;5074074;28;20033;-48
2022/11/26 00:45:56;;;;;;;29.83;10.18;;;;;;;3.44;100.00;102441.97;5074208;28;20055;-52
2022/11/26 00:48:25;;;;;;;21.65;10.43;;;;;;;3.44;100.00;102444.56;5073998;28;20040;-53
2022/11/26 00:50:53;;;;;;;21.52;10.02;;;;;;;3.42;100.00;102439.34;5072143;28;20147;-53
2022/11/26 00:53:26;;;;;;;23.83;11.30;;;;;;;3.38;100.00;102441.16;5068158;28;20169;-53
2022/11/26 00:55:54;;;;;;;;;;;;;;;3.37;100.00;102439.41;5073354;28;20052;-53
2022/11/26 00:58:27;;;;;;;22.95;11.38;;;;;;;3.35;100.00;102449.00;5068723;28;19970;-53
2022/11/26 01:00:57;;;;;;;23.15;11.70;;;;;;;3.36;100.00;102448.09;5069443;28;20052;-50
2022/11/26 01:03:26;;;;;;;22.48;11.43;;;;;;;3.32;100.00;102450.75;5073807;28;20487;-52
2022/11/26 01:05:58;;;;;;;27.33;11.88;;;;;;;3.30;100.00;102449.88;5073095;28;20052;-52
2022/11/26 01:08:32;;;;;;;20.77;10.93;;;;;;;3.27;100.00;102453.38;5072962;28;20060;-53
2022/11/26 01:11:04;;;;;;;25.73;10.80;;;;;;;3.24;100.00;102448.19;5071449;28;20044;-54
2022/11/26 01:13:33;;;;;;;21.95;9.98;;;;;;;3.21;100.00;102453.44;5068192;28;20049;-52
2022/11/26 01:16:16;;;;;;;24.27;11.02;;;;;;;3.20;100.00;102459.50;5070095;28;20040;-52
2022/11/26 01:18:48;;;;;;;22.17;10.80;;;;;;;3.18;100.00;102461.28;5073186;28;20053;-54
2022/11/26 01:21:16;;;;;;;18.83;9.63;;;;;;;3.16;100.00;102458.69;5073296;28;20047;-51
2022/11/26 01:23:46;;;;;;;19.08;10.35;;;;;;;3.16;100.00;102458.69;5073246;28;20144;-53
2022/11/26 01:26:16;;;;;;;21.63;9.02;;;;;;;3.12;100.00;102467.38;5073227;28;20048;-53
2022/11/26 01:28:44;;;;;;;17.25;8.65;;;;;;;3.08;100.00;102468.28;5073401;28;20048;-51
2022/11/26 01:31:15;;;;;;;20.55;9.68;;;;;;;3.07;100.00;102461.34;5073178;28;20048;-54
2022/11/26 01:33:44;;;;;;;16.77;8.70;;;;;;;3.04;100.00;102474.34;5073014;28;20045;-53
2022/11/26 01:36:22;;;;;;;16.88;9.00;;;;;;;3.01;100.00;102469.19;5071840;28;20040;-53
2022/11/26 01:38:53;;;;;;;15.38;7.97;;;;;;;2.98;100.00;102471.81;5068712;28;20068;-52
2022/11/26 01:41:34;;;;;;;18.63;8.93;;;;;;;2.94;100.00;102475.31;5067878;28;20114;-51
2022/11/26 01:44:04;;;;;;;16.55;7.80;;;;;;;2.92;100.00;102482.25;5068357;28;20174;-52
2022/11/26 01:46:36;;;;;;;15.38;7.90;;;;;;;2.85;100.00;102482.31;5067497;28;20053;-51
2022/11/26 01:49:20;;;;;;;20.75;9.18;;;;;;;2.88;100.00;102478.81;5073115;28;20090;-52
2022/11/26 01:51:54;;;;;;;16.33;7.47;;;;;;;2.85;100.00;102474.50;5069127;28;20052;-54
2022/11/26 01:54:23;;;;;;;17.25;8.40;;;;;;;2.82;100.00;102464.13;5067578;28;20538;-54
2022/11/26 01:56:54;;;;;;;21.85;9.40;;;;;;;2.80;100.00;102472.81;5068014;28;20052;-53
2022/11/26 01:59:28;;;;;;;14.70;7.78;;;;;;;2.76;100.00;102471.09;5066871;28;20090;-55
2022/11/26 02:01:59;;;;;;;14.15;8.00;;;;;;;2.72;100.00;102470.25;5069373;28;20124;-53
2022/11/26 02:04:31;;;;;;;16.02;8.48;;;;;;;2.73;100.00;102476.31;5072449;28;20032;-54
2022/11/26 02:07:00;;;;;;;17.13;9.43;;;;;;;2.70;100.00;102474.63;5072440;28;20048;-54
2022/11/26 02:09:31;;;;;;;19.67;8.80;;;;;;;2.71;100.00;102484.09;5071652;28;20537;-55
2022/11/26 02:12:00;;;;;;;16.88;8.40;;;;;;;2.68;100.00;102485.00;5068963;28;20049;-55
2022/11/26 02:14:32;;;;;;;14.05;8.77;;;;;;;2.66;100.00;102481.56;5066782;28;20582;-55
2022/11/26 02:17:12;;;;;;;18.00;8.30;;;;;;;2.62;100.00;102486.75;5071448;28;20494;-55
2022/11/26 02:20:28;;;;;;;17.08;8.52;;;;;;;2.61;100.00;102477.25;5072684;28;20060;-50
2022/11/26 02:23:22;;;;;;;15.45;8.63;;;;;;;2.56;100.00;102479.00;5068379;28;20040;-54
2022/11/26 02:26:19;;;;;;;14.95;8.13;;;;;;;2.65;100.00;102481.56;5067852;28;20432;-55
2022/11/26 02:29:00;;;;;;;14.32;7.57;;;;;;;2.64;100.00;102483.28;5066901;28;20398;-56
2022/11/26 02:31:39;;;;;;;19.38;8.05;;;;;;;2.52;100.00;102484.22;5072757;28;20511;-55
2022/11/26 02:34:15;;;;;;;15.07;7.65;;;;;;;2.57;100.00;102480.75;5067778;28;20102;-56
2022/11/26 02:36:48;;;;;;;16.23;7.30;;;;;;;2.56;100.00;102484.22;5067626;28;20041;-56
2022/11/26 02:39:18;;;;;;;16.35;7.82;;;;;;;2.50;100.00;102490.31;5070420;28;20127;-56
2022/11/26 02:41:48;;;;;;;18.23;7.68;;;;;;;2.46;100.00;102491.19;5072419;28;20113;-56
2022/11/26 02:44:21;;;;;;;17.75;8.00;;;;;;;2.43;100.00;102489.47;5071460;28;20044;-56
2022/11/26 02:46:54;;;;;;;16.70;8.07;;;;;;;2.49;100.00;102502.41;5065693;28;20049;-49
2022/11/26 02:49:22;;;;;;;13.75;7.35;;;;;;;2.46;100.00;102501.56;5069006;28;20064;-49
2022/11/26 02:51:54;;;;;;;16.67;7.88;;;;;;;2.43;100.00;102512.00;5072022;28;20043;-52
2022/11/26 02:54:25;;;;;;;14.50;7.18;;;;;;;2.43;100.00;102510.25;5068409;28;20037;-49
2022/11/26 02:56:54;;;;;;;17.88;7.25;;;;;;;2.38;100.00;102509.41;5067379;28;20086;-50
2022/11/26 02:59:22;;;;;;;15.13;7.63;;;;;;;2.38;100.00;102509.41;5072085;28;20061;-50
2022/11/26 03:01:58;;;;;;;19.23;8.27;;;;;;;2.35;100.00;102509.41;5072123;28;20119;-52
2022/11/26 03:04:31;;;;;;;17.67;8.77;;;;;;;2.34;100.00;102513.72;5072176;28;20569;-51
2022/11/26 03:07:03;;;;;;;20.80;9.98;;;;;;;2.35;100.00;102518.06;5071600;28;20045;-48
2022/11/26 03:09:40;;;;;;;18.13;8.15;;;;;;;2.36;100.00;102516.34;5070833;28;20507;-48
2022/11/26 03:12:08;;;;;;;17.75;7.50;;;;;;;2.28;100.00;102520.69;5067144;28;20119;-47
2022/11/26 03:14:37;;;;;;;16.35;8.50;;;;;;;2.25;100.00;102513.78;5067487;28;20110;-51
2022/11/26 03:17:06;;;;;;;14.65;7.63;;;;;;;2.18;100.00;102522.44;5072097;28;20122;-50
2022/11/26 03:19:35;;;;;;;15.48;8.15;;;;;;;2.16;100.00;102519.00;5071667;28;20064;-49
2022/11/26 03:22:03;;;;;;;16.30;8.10;;;;;;;2.13;100.00;102526.81;5071918;28;20517;-50
2022/11/26 03:24:32;;;;;;;16.13;7.60;;;;;;;2.13;100.00;102534.59;5071955;28;20476;-48
2022/11/26 03:27:00;;;;;;;14.32;7.40;;;;;;;2.07;100.00;102547.56;5071741;28;20048;-52
2022/11/26 03:29:28;;;;;;;14.20;7.35;;;;;;;2.12;100.00;102541.50;5068161;28;20568;-50
2022/11/26 03:31:57;;;;;;;11.52;6.43;;;;;;;2.10;100.00;102545.84;5066747;28;20529;-51
2022/11/26 03:34:27;;;;;;;13.85;6.55;;;;;;;2.13;100.00;102551.03;5070983;28;20055;-49
2022/11/26 03:36:56;;;;;;;12.80;6.80;;;;;;;2.16;100.00;102545.81;5073860;28;20049;-56
2022/11/26 03:39:24;;;;;;;13.00;7.38;;;;;;;2.07;100.00;102547.56;5069705;28;20048;-57
2022/11/26 03:41:52;;;;;;;13.80;7.00;;;;;;;2.05;100.00;102554.53;5069526;28;20048;-56
2022/11/26 03:44:20;;;;;;;11.73;6.50;;;;;;;2.01;100.00;102554.50;5070106;28;20102;-56
2022/11/26 03:46:48;;;;;;;11.25;6.97;;;;;;;2.03;100.00;102551.91;5072824;28;20075;-56
2022/11/26 03:49:17;;;;;;;13.48;7.28;;;;;;;2.06;100.00;102557.09;5069913;28;20056;-56
2022/11/26 03:51:46;;;;;;;17.85;8.32;;;;;;;2.02;100.00;102556.22;5072125;28;20377;-56
2022/11/26 03:54:14;;;;;;;18.25;7.45;;;;;;;2.05;100.00;102562.31;5074883;28;20514;-57
2022/11/26 03:56:42;;;;;;;16.45;7.75;;;;;;;2.05;100.00;102562.31;5071354;28;20499;-56
2022/11/26 03:59:11;;;;;;;15.20;7.45;;;;;;;2.06;100.00;102566.59;5070623;28;20403;-56
2022/11/26 04:01:39;;;;;;;15.38;8.20;;;;;;;2.03;100.00;102563.16;5068861;28;20462;-51
2022/11/26 04:04:07;;;;;;;19.67;7.47;;;;;;;2.02;100.00;102566.63;5070582;28;20478;-48
2022/11/26 04:06:35;;;;;;;18.23;7.43;;;;;;;2.01;100.00;102554.50;5071742;28;20053;-48
2022/11/26 04:09:05;;;;;;;21.05;8.52;;;;;;;2.01;100.00;102570.06;5075157;28;20051;-49
2022/11/26 04:11:33;;;;;;;18.63;7.80;;;;;;;2.01;100.00;102577.00;5075233;28;20048;-56
2022/11/26 04:14:01;;;;;;;17.08;8.10;;;;;;;1.86;100.00;102570.09;5070448;28;20086;-51
2022/11/26 04:16:29;;;;;;;15.70;7.38;;;;;;;1.88;100.00;102575.28;5069320;28;20423;-51
2022/11/26 04:18:57;;;;;;;14.02;7.50;;;;;;;1.82;100.00;102578.75;5074404;28;20057;-50
2022/11/26 04:21:25;;;;;;;19.17;7.65;;;;;;;1.82;100.00;102581.34;5074384;28;20074;-49
2022/11/26 04:23:54;;;;;;;14.82;7.10;;;;;;;1.80;100.00;102586.56;5074485;28;20044;-48
2022/11/26 04:26:23;;;;;;;16.80;8.02;;;;;;;1.79;100.00;102591.75;5074361;28;20044;-50
2022/11/26 04:28:52;;;;;;;20.88;8.77;;;;;;;1.78;100.00;102596.03;5074644;28;20068;-52
2022/11/26 04:31:20;;;;;;;13.68;7.50;;;;;;;1.79;100.00;102592.59;5074352;28;20361;-50
2022/11/26 04:33:48;;;;;;;16.67;8.02;;;;;;;1.79;100.00;102581.38;5072053;28;20076;-50
2022/11/26 04:36:16;;;;;;;12.60;7.22;;;;;;;1.81;100.00;102577.91;5068968;28;20071;-52
2022/11/26 04:38:44;;;;;;;15.05;7.50;;;;;;;1.75;100.00;102584.81;5073319;28;20052;-53
2022/11/26 04:41:12;;;;;;;12.48;6.55;;;;;;;1.74;100.00;102583.94;5074371;28;20090;-53
2022/11/26 04:43:41;;;;;;;15.13;7.68;;;;;;;1.72;100.00;102585.69;5074049;28;20048;-51
2022/11/26 04:46:10;;;;;;;14.48;7.13;;;;;;;1.73;100.00;102589.13;5073707;28;20094;-51
2022/11/26 04:48:38;;;;;;;11.95;7.20;;;;;;;1.68;100.00;102594.34;5074165;28;20106;-50
2022/11/26 04:51:06;;;;;;;14.18;7.18;;;;;;;1.70;100.00;102597.78;5074268;28;20048;-52
2022/11/26 04:53:34;;;;;;;11.45;6.55;;;;;;;1.57;100.00;102598.63;5074103;28;20445;-51
2022/11/26 04:56:02;;;;;;;11.20;6.70;;;;;;;1.59;100.00;102608.16;5073935;28;20044;-57
2022/11/26 04:58:31;;;;;;;12.85;6.80;;;;;;;1.54;100.00;102609.91;5073835;28;20040;-57
2022/11/26 05:01:00;;;;;;;13.00;6.68;;;;;;;1.53;100.00;102613.34;5073878;28;20048;-56
2022/11/26 05:03:29;;;;;;;11.90;6.45;;;;;;;1.51;100.00;102608.16;5070233;28;20096;-57
2022/11/26 05:05:57;;;;;;;12.52;6.80;;;;;;;1.54;100.00;102609.91;5069463;28;20040;-56
2022/11/26 05:08:25;;;;;;;12.95;6.60;;;;;;;1.51;100.00;102621.13;5068119;28;20052;-51
2022/11/26 05:10:54;;;;;;;12.57;7.40;;;;;;;1.52;100.00;102619.41;5069653;28;20048;-57
2022/11/26 05:13:22;;;;;;;15.27;7.43;;;;;;;1.62;100.00;102621.16;5070469;28;20572;-56
2022/11/26 05:15:50;;;;;;;17.45;8.57;;;;;;;1.61;100.00;102614.22;5067546;28;20503;-55
2022/11/26 05:18:20;;;;;;;12.85;6.75;;;;;;;1.63;100.00;102609.03;5071570;28;20476;-56
2022/11/26 05:20:48;;;;;;;19.13;8.02;;;;;;;1.52;100.00;102616.81;5073037;28;20052;-56
2022/11/26 05:23:16;;;;;;;16.85;7.82;;;;;;;1.47;100.00;102624.59;5071896;28;20576;-49
2022/11/26 05:25:45;;;;;;;18.40;8.05;;;;;;;1.42;100.00;102617.63;5068741;28;20055;-49
2022/11/26 05:28:13;;;;;;;15.02;8.18;;;;;;;1.39;100.00;102620.22;5068197;28;20051;-56
2022/11/26 05:30:41;;;;;;;17.38;9.05;;;;;;;1.43;100.00;102619.38;5067436;28;20131;-56
2022/11/26 05:33:09;;;;;;;17.35;8.27;;;;;;;1.45;100.00;102620.25;5072118;28;20119;-54
2022/11/26 05:35:39;;;;;;;15.52;8.45;;;;;;;1.42;100.00;102617.63;5067316;28;20053;-48
2022/11/26 05:38:07;;;;;;;16.45;8.57;;;;;;;1.34;100.00;102613.31;5069651;28;20098;-50
2022/11/26 05:40:35;;;;;;;17.40;8.15;;;;;;;1.40;100.00;102612.44;5071856;28;20052;-57
2022/11/26 05:43:03;;;;;;;19.20;8.07;;;;;;;1.38;100.00;102619.38;5072947;28;20112;-57
2022/11/26 05:45:31;;;;;;;15.85;8.35;;;;;;;1.41;100.00;102621.13;5072863;28;20056;-57
2022/11/26 05:47:59;;;;;;;18.33;8.48;;;;;;;1.35;100.00;102629.75;5072267;28;20044;-57
2022/11/26 05:50:27;;;;;;;21.48;9.75;;;;;;;1.30;100.00;102627.13;5068000;28;20117;-57
2022/11/26 05:52:57;;;;;;;17.00;9.25;;;;;;;1.33;100.00;102624.53;5068246;28;20041;-57
2022/11/26 05:55:25;;;;;;;19.90;9.38;;;;;;;1.33;100.00;102626.28;5069397;28;20048;-56
2022/11/26 05:57:53;;;;;;;21.35;10.93;;;;;;;1.30;100.00;102632.31;5072242;28;20075;-57
2022/11/26 06:00:22;;;;;;;21.48;9.75;;;;;;;1.30;100.00;102631.47;5066536;28;20056;-57
2022/11/26 06:02:50;;;;;;;21.90;10.23;;;;;;;1.25;100.00;102644.41;5068641;28;20450;-57
2022/11/26 06:05:18;;;;;;;22.02;9.10;;;;;;;1.32;100.00;102635.78;5069025;28;20036;-50
2022/11/26 06:07:47;;;;;;;21.80;9.50;;;;;;;1.27;100.00;102641.81;5072227;28;20102;-53
2022/11/26 06:10:16;;;;;;;22.42;9.38;;;;;;;1.26;100.00;102647.88;5072281;28;20103;-57
2022/11/26 06:12:44;;;;;;;22.75;8.93;;;;;;;1.22;100.00;102649.59;5072548;28;20560;-57
2022/11/26 06:15:12;;;;;;;22.23;9.45;;;;;;;1.17;100.00;102649.59;5072264;28;20495;-57
2022/11/26 06:17:41;;;;;;;23.42;9.43;;;;;;;1.14;100.00;102651.28;5072281;28;20090;-50
2022/11/26 06:20:10;;;;;;;25.65;8.52;;;;;;;1.16;100.00;102652.16;5070689;28;20052;-52
2022/11/26 06:22:38;;;;;;;20.40;8.98;;;;;;;1.17;100.00;102651.28;5072299;28;20056;-50
2022/11/26 06:25:08;;;;;;;31.25;9.50;;;;;;;1.20;100.00;102651.31;5072082;28;20040;-57
2022/11/26 06:27:37;;;;;;;26.80;8.80;;;;;;;1.12;100.00;102656.47;5071634;28;20479;-57
2022/11/26 06:30:08;;;;;;;22.45;8.75;;;;;;;1.17;100.00;102659.94;5066624;28;20063;-56
2022/11/26 06:32:36;;;;;;;24.20;8.30;;;;;;;1.12;100.00;102656.47;5068158;28;20163;-57
2022/11/26 06:35:05;;;;;;;17.98;7.85;;;;;;;1.12;100.00;102659.06;5070423;28;20052;-57
2022/11/26 06:37:33;;;;;;;15.50;7.70;;;;;;;1.15;100.00;102664.25;5072053;28;20099;-56
2022/11/26 06:40:02;;;;;;;20.27;8.20;;;;;;;1.14;100.00;102667.69;5072121;28;20103;-51
2022/11/26 06:42:30;;;;;;;21.15;8.55;;;;;;;1.11;100.00;102674.63;5071835;28;20094;-50
2022/11/26 06:44:59;;;;;;;16.50;6.75;;;;;;;1.14;100.00;102674.63;5071724;28;20119;-51
2022/11/26 06:47:28;;;;;;;15.25;7.60;;;;;;;1.12;100.00;102678.94;5072226;28;20155;-56
2022/11/26 06:49:56;;;;;;;16.05;7.95;;;;;;;1.15;100.00;102679.81;5071949;28;20040;-57
2022/11/26 06:52:24;;;;;;;15.30;7.43;;;;;;;1.14;100.00;102688.44;5071912;28;20455;-49
2022/11/26 06:54:53;;;;;;;16.88;8.05;;;;;;;1.15;100.00;102695.34;5072008;28;20546;-49
2022/11/26 06:57:21;;;;;;;16.63;7.97;;;;;;;1.18;100.00;102694.50;5072154;28;20045;-50
2022/11/26 06:59:49;;;;;;;14.32;7.85;;;;;;;1.18;100.00;102695.34;5072264;28;20526;-48
2022/11/26 07:02:18;;;;;;;17.42;8.63;;;;;;;1.14;100.00;102698.78;5070188;28;20053;-49
2022/11/26 07:04:46;;;;;;;16.70;7.95;;;;;;;1.19;100.00;102693.66;5071918;28;20045;-49
2022/11/26 07:07:15;;;;;;;12.90;7.40;;;;;;;1.18;100.00;102697.94;5072188;28;20063;-57
2022/11/26 07:09:43;;;;;;;17.60;7.20;;;;;;;1.16;100.00;102697.09;5074684;28;20074;-58
2022/11/26 07:12:11;;;;;;;19.33;7.25;;;;;;;1.21;100.00;102697.09;5076105;28;20049;-57
2022/11/26 07:14:40;;;;;;;18.67;7.60;;;;;;;1.16;100.00;102697.09;5071299;28;20055;-57
2022/11/26 07:17:08;;;;;;;14.02;6.53;;;;;;;1.14;100.00;102703.97;5071282;28;20076;-53
2022/11/26 07:19:38;;;;;;;13.40;7.00;;;;;;;1.18;100.00;102699.69;5070507;28;20095;-57
2022/11/26 07:22:06;;;;;;;12.30;7.05;;;;;;;1.21;100.00;102701.44;5075564;28;20048;-58
2022/11/26 07:24:34;;;;;;;16.48;7.03;;;;;;;1.23;100.00;102704.88;5075407;28;20044;-57
2022/11/26 07:27:02;;;;;;;22.35;7.57;;;;;;;1.25;100.00;102706.63;5093210;28;20451;-57
2022/11/26 07:29:30;;;;;;;14.57;7.45;;;;;;;1.29;100.00;102712.69;5095756;28;20036;-57
2022/11/26 07:31:58;;;;;;;15.13;8.07;;;;;;;1.29;100.00;102708.34;5095678;28;20036;-48
2022/11/26 07:34:26;;;;;;;16.70;8.05;;;;;;;1.37;100.00;102716.16;5094228;28;20052;-57
2022/11/26 07:36:56;;;;;;;19.63;8.13;;;;;;;1.40;100.00;102715.31;5075835;28;20041;-49
2022/11/26 07:39:25;;;;;;;13.75;8.48;;;;;;;1.43;100.00;102718.78;5072800;28;20131;-48
2022/11/26 07:41:53;;;;;;;12.75;8.02;;;;;;;1.46;100.00;102721.41;5075290;28;20045;-49
2022/11/26 07:44:21;;;;;;;11.50;7.35;;;;;;;1.50;100.00;102723.13;5075037;28;20044;-51
2022/11/26 07:46:50;;;;;;;13.48;7.63;;;;;;;1.44;100.00;102723.09;5075431;28;20044;-49
2022/11/26 07:49:18;;;;;;;15.23;8.23;;;;;;;1.42;100.00;102727.44;5074944;28;20056;-52
2022/11/26 07:51:48;;;;;;;11.90;7.97;;;;;;;1.39;100.00;102724.84;5076578;28;20043;-53
2022/11/26 07:54:17;;;;;;;12.10;7.90;;;;;;;1.43;100.00;102728.28;5087163;28;20556;-57
2022/11/26 07:56:45;;;;;;;13.90;7.88;;;;;;;1.45;100.00;102732.63;5095417;28;20498;-58
2022/11/26 07:59:13;;;;;;;18.15;8.20;;;;;;;1.49;100.00;102733.50;5095313;28;20048;-58
2022/11/26 08:01:42;;;;;;;20.15;8.40;;;;;;;1.50;100.00;102732.63;5095371;28;20596;-57
2022/11/26 08:04:10;;;;;;;15.35;9.38;;;;;;;1.48;100.00;102729.16;5083583;28;20049;-58
2022/11/26 08:06:38;;;;;;;14.18;9.07;;;;;;;1.58;100.00;102732.66;5074761;28;20056;-58
2022/11/26 08:09:06;;;;;;;14.27;9.45;;;;;;;1.63;100.00;102734.38;5074925;28;20549;-49
2022/11/26 08:11:35;;;;;;;13.63;9.43;;;;;;;1.58;100.00;102727.47;5074427;28;20055;-52
2022/11/26 08:14:06;;;;;;;13.52;9.27;;;;;;;1.62;100.00;102727.50;5075678;28;20479;-49
2022/11/26 08:16:34;;;;;;;19.33;8.80;;;;;;;1.76;100.00;102729.22;5075675;28;20101;-52
2022/11/26 08:19:06;;;;;;;15.23;9.10;;;;;;;1.78;100.00;102733.56;5090708;28;20063;-50
2022/11/26 08:21:34;;;;;;;13.82;8.75;;;;;;;1.75;100.00;102730.97;5092856;28;20352;-51
2022/11/26 08:24:03;;;;;;;15.02;9.27;;;;;;;1.85;100.00;102729.25;5094635;28;20436;-57
2022/11/26 08:26:31;;;;;;;18.23;9.48;;;;;;;1.86;100.00;102731.84;5094695;28;20568;-57
2022/11/26 08:29:08;;;;;;;16.80;8.35;;;;;;;1.86;100.00;102733.59;5087931;28;20050;-56
2022/11/26 08:31:39;;;;;;;17.75;8.98;;;;;;;1.96;100.00;102731.84;5076917;28;20449;-56
2022/11/26 08:34:14;;;;;;;18.40;9.23;;;;;;;1.99;100.00;102732.75;5091853;28;20146;-57
2022/11/26 08:36:43;;;;;;;17.65;9.30;;;;;;;2.02;100.00;102737.94;5094235;28;20066;-56
2022/11/26 08:39:13;;;;;;;15.35;9.60;;;;;;;2.09;100.00;102749.19;5092709;28;20379;-55
2022/11/26 08:41:41;;;;;;;18.73;10.63;;;;;;;2.11;100.00;102749.19;5063910;28;20048;-56
2022/11/26 08:44:17;;;;;;;15.00;9.38;;;;;;;2.12;100.00;102743.13;5094555;28;20052;-55
2022/11/26 08:46:45;;;;;;;17.67;10.70;;;;;;;2.26;100.00;102746.56;5094242;28;20048;-55
2022/11/26 08:49:15;;;;;;;16.95;9.75;;;;;;;2.37;100.00;102749.19;5089592;28;20040;-55
2022/11/26 08:51:44;;;;;;;23.00;11.70;;;;;;;2.44;100.00;102748.31;5090465;28;20093;-53
2022/11/26 08:54:12;;;;;;;19.35;11.00;;;;;;;2.65;100.00;102754.38;5092289;28;20086;-56
2022/11/26 08:56:40;;;;;;;22.85;12.90;;;;;;;2.72;100.00;102758.66;5074953;28;20048;-56
2022/11/26 08:59:08;;;;;;;22.13;12.35;;;;;;;2.79;100.00;102747.38;5071982;28;20044;-55
2022/11/26 09:01:37;;;;;;;30.10;13.93;;;;;;;2.87;100.00;102739.59;5073027;28;20049;-55
2022/11/26 09:04:06;;;;;;;21.38;12.38;;;;;;;2.94;100.00;102746.50;5068920;28;20044;-55
2022/11/26 09:06:36;;;;;;;23.90;12.60;;;;;;;3.07;100.00;102744.72;5076515;28;20040;-55
2022/11/26 09:09:16;;;;;;;26.20;14.10;;;;;;;3.12;100.00;102752.50;5089691;28;20039;-56
2022/11/26 09:11:48;;;;;;;24.80;13.60;;;;;;;3.21;100.00;102752.47;5089336;28;20097;-56
2022/11/26 09:14:18;;;;;;;31.58;15.73;;;;;;;3.29;100.00;102747.25;5088795;28;20048;-54
2022/11/26 09:16:47;;;;;;;30.38;14.80;;;;;;;3.38;100.00;102752.41;5083571;28;20037;-55
2022/11/26 09:19:16;;;;;;;27.42;15.95;;;;;;;3.46;100.00;102740.22;5073428;28;20102;-55
2022/11/26 09:21:45;;;;;;;28.05;17.05;;;;;;;3.53;100.00;102747.13;5073464;28;20045;-54
2022/11/26 09:24:15;;;;;;;30.33;15.93;;;;;;;3.59;100.00;102745.38;5073353;28;20550;-56
2022/11/26 09:26:44;;;;;;;25.95;15.63;;;;;;;3.67;100.00;102746.19;5072649;28;20049;-54
2022/11/26 09:29:13;;;;;;;27.20;15.55;;;;;;;3.74;100.00;102753.09;5068495;28;20457;-56
2022/11/26 09:31:41;;;;;;;28.00;16.88;;;;;;;3.81;100.00;102757.38;5074486;28;20052;-54
2022/11/26 09:34:31;;;;;;;34.53;16.80;;;;;;;3.99;100.00;102760.75;5093083;28;20093;-56
2022/11/26 09:36:59;;;;;;;28.40;16.33;;;;;;;4.00;100.00;102763.31;5089277;28;20044;-56
2022/11/26 09:39:28;;;;;;;29.08;16.25;;;;;;;4.04;100.00;102767.63;5089356;28;20463;-53
2022/11/26 09:42:03;;;;;;;26.20;15.45;;;;;;;4.09;100.00;102758.94;5084479;28;20078;-56
2022/11/26 09:45:01;;;;;;;29.38;15.48;;;;;;;4.18;100.00;102761.47;5069251;28;20114;-55
2022/11/26 09:47:35;;;;;;;32.63;15.60;;;;;;;4.21;100.00;102767.53;5068495;28;20048;-54
2022/11/26 09:50:17;;;;;;;34.03;16.13;;;;;;;4.30;100.00;102760.53;5073033;28;20050;-49
2022/11/26 09:52:52;;;;;;;30.85;17.10;;;;;;;4.43;100.00;102750.84;5072862;28;20048;-53
2022/11/26 09:55:23;;;;;;;31.70;17.27;;;;;;;4.49;100.00;102750.81;5071366;28;20048;-55
2022/11/26 09:57:59;;;;;;;33.22;17.38;;;;;;;4.55;100.00;102771.56;5086667;28;20044;-56
2022/11/26 10:00:31;;;;;;;35.42;17.27;;;;;;;4.62;100.00;102775.88;5091847;28;20483;-56
2022/11/26 10:02:59;;;;;;;29.40;16.30;;;;;;;4.70;100.00;102781.00;5073735;28;20449;-54
2022/11/26 10:05:52;;;;;;;33.65;17.45;;;;;;;4.79;100.00;102778.31;5069908;28;20040;-56
2022/11/26 10:08:50;;;;;;;31.25;16.35;;;;;;;4.89;100.00;102772.13;5078790;28;20055;-56
2022/11/26 10:11:29;;;;;;;28.27;17.75;;;;;;;4.99;100.00;102769.41;5069979;28;20064;-55
2022/11/26 10:14:09;;;;;;;35.03;17.70;;;;;;;5.12;100.00;102768.38;5091574;28;20048;-56
2022/11/26 10:16:43;;;;;;;35.20;16.70;;;;;;;5.26;100.00;102770.81;5088328;28;20049;-56
2022/11/26 10:19:22;;;;;;;31.40;16.23;;;;;;;5.29;100.00;102772.53;5088121;28;20067;-57
2022/11/26 10:21:56;;;;;;;35.72;15.38;;;;;;;5.36;100.00;102775.06;5087974;28;20052;-56
2022/11/26 10:24:30;;;;;;;32.83;15.73;;;;;;;5.49;100.00;102765.31;5087981;28;20048;-56
2022/11/26 10:27:01;;;;;;;30.27;15.90;;;;;;;5.57;100.00;102766.06;5088156;28;20070;-57
2022/11/26 10:29:38;;;;;;;29.80;15.20;;;;;;;5.65;100.00;102767.75;5092331;28;20101;-56
2022/11/26 10:32:13;;;;;;;31.05;15.60;;;;;;;5.72;100.00;102769.38;5091092;28;20058;-57
2022/11/26 10:34:49;;;;;;;32.22;16.00;;;;;;;5.78;100.00;102764.09;5092769;28;20511;-56
2022/11/26 10:37:20;;;;;;;29.63;14.98;;;;;;;5.84;100.00;102761.38;5089565;28;20118;-57
2022/11/26 10:39:49;;;;;;;32.92;14.73;;;;;;;5.93;100.00;102760.34;5087305;28;20052;-57
2022/11/26 10:42:24;;;;;;;32.60;14.98;;;;;;;5.99;100.00;102757.69;5085922;28;20054;-57
2022/11/26 10:44:53;;;;;;;30.77;13.15;;;;;;;6.07;100.00;102761.06;5049130;28;20053;-56
2022/11/26 10:47:27;;;;;;;24.85;12.27;;;;;;;6.16;100.00;102757.44;5051636;28;20057;-57
2022/11/26 10:49:57;;;;;;;28.42;11.88;;;;;;;6.24;100.00;102763.41;5052261;28;20086;-56
2022/11/26 10:52:29;;;;;;;22.17;11.98;;;;;;;6.36;100.00;102757.09;5051165;28;20078;-57
2022/11/26 10:55:10;;;;;;;34.88;12.57;;;;;;;6.42;100.00;102756.13;5051947;28;20099;-57
2022/11/26 10:57:46;;;;;;;29.05;11.13;;;;;;;6.50;100.00;102756.00;5062624;28;20040;-57
2022/11/26 11:00:30;;;;;;;28.73;12.68;;;;;;;6.57;100.00;102758.50;5090516;28;20059;-58
2022/11/26 11:02:59;;;;;;;26.88;12.32;;;;;;;6.66;100.00;102764.44;5092685;28;20054;-58
2022/11/26 11:05:28;;;;;;;29.55;11.50;;;;;;;6.74;100.00;102757.31;5096214;28;20364;-56
2022/11/26 11:08:00;;;;;;;25.80;11.63;;;;;;;6.80;100.00;102757.19;5092083;28;20078;-56
2022/11/26 11:10:28;;;;;;;28.17;12.52;;;;;;;6.87;100.00;102753.59;5091569;28;20155;-57
2022/11/26 11:13:10;;;;;;;24.23;11.32;;;;;;;6.91;100.00;102755.25;5094924;28;20055;-57
2022/11/26 11:15:40;;;;;;;32.25;12.45;;;;;;;6.99;100.00;102760.31;5089699;28;20093;-58
2022/11/26 11:18:19;;;;;;;23.52;11.23;;;;;;;7.08;100.00;102756.66;5090949;28;20040;-58
2022/11/26 11:20:56;;;;;;;25.08;11.18;;;;;;;7.16;100.00;102752.16;5090143;28;20048;-58
2022/11/26 11:23:27;;;;;;;26.95;10.68;;;;;;;7.19;100.00;102749.47;5088963;28;20088;-58
2022/11/26 11:26:20;;;;;;;25.85;9.88;;;;;;;7.30;100.00;102746.63;5091227;28;20090;-58
2022/11/26 11:28:51;;;;;;;26.58;11.57;;;;;;;7.38;100.00;102733.38;5089346;28;20036;-57
2022/11/26 11:31:21;;;;;;;24.83;10.00;;;;;;;7.44;100.00;102739.34;5092019;28;20052;-58